ROYN/OGN METAR and TAF weather

Enter ICAO airport designator
Station Type Date Time Source
ROYN METAR 2019/08/23 17:00 UTC NOAA

ROYN 231700Z AUTO 09015KT 9999 FEW022 SCT032 BKN042 29/25 Q1005


Station Type Date Time Source
ROYN Decoded METAR 2019/08/23 17:00 UTC NOAA

Station name not available
Aug 23, 2019 - 01:00 PM EDT / 2019.08.23 1700 UTC
Wind: from the E (090 degrees) at 17 MPH (15 KT):0
Visibility: greater than 7 mile(s):0
Sky conditions: mostly cloudy
Temperature: 84 F (29 C)
Dew Point: 77 F (25 C)
Relative Humidity: 79%
Pressure (altimeter): 29.68 in. Hg (1005 hPa)
ob: ROYN 231700Z AUTO 09015KT 9999 FEW022 SCT032 BKN042 29/25 Q1005
cycle: 17

Station Type Date Time Source
ROYN TAF UTC NOAA

Error!

Example: see airport list